Terminal Aerodrome Forecast
Issued by NWS

Home | Current Version | Previous Version | Text Only | Print | Product List | Glossary On
Versions: 1 2 3 4 5 6 7 8 9 10 11 12 13 14
000
FTUS43 KBIS 011720
TAFDIK
TAF
KDIK 011720Z 0118/0218 30009KT P6SM SKC
     FM011900 30015G22KT P6SM SKC
     FM012100 28013G21KT P6SM SKC
     FM020200 31012KT P6SM SKC
     FM020700 35007KT P6SM SKC=

USA.gov is the U.S. government's official web portal to all federal, state and local government web resources and services.